Weather at Cabaña San Isidro Labrador Heliport

Public forecast

Using degrees Celsius for public forecast. Weather courtesy of forecast.io.

Closest aviation weather report (METAR) to Cabaña San Isidro Labrador Heliport

Closest report is San Fernando Airport, 10.8 nm (20.0 km) ESE.

2024/05/24 20:00 (retrieved 30 minutes ago)

SADF 242000Z 22010KT CAVOK 11/M00 Q1025

Closest aviation forecast (TAF) to Cabaña San Isidro Labrador Heliport

Closest forecast is San Fernando Airport, 10.8 nm (20.0 km) ESE.

2024/05/24 18:00 (retrieved 2 hours ago)

TAF SADF 241700Z 2418/2518 22015KT 9999 BKN040 TX12/2418Z TN01/2511Z BECMG 2422/2524 20005KT CAVOK BECMG 2514/2516 9999 SCT030